Time;durP1;ratioP1;P1;durP2;ratioP2;P2;SDS_P1;SDS_P2;PMS_P1;PMS_P2;Temp;Humidity;BMP_temperature;BMP_pressure;BME280_temperature;BME280_humidity;BME280_pressure;Samples;Min_cycle;Max_cycle;Signal;HPM_P1;HPM_P2
2023/08/08 00:01:28;;;;;;;2.67;2.30;;;;;;;;;;4997864;28;20057;-80
2023/08/08 00:03:54;;;;;;;9.25;3.20;;;;;;;;;;4983138;28;20056;-79
2023/08/08 00:06:20;;;;;;;4.30;2.78;;;;;;;;;;4999116;28;20486;-84
2023/08/08 00:08:46;;;;;;;4.07;2.67;;;14.30;33.70;;;;;;4998866;28;20048;-84
2023/08/08 00:11:12;;;;;;;5.53;2.75;;;;;;;;;;5014587;28;20049;-86
2023/08/08 00:13:37;;;;;;;7.13;2.75;;;14.30;35.90;;;;;;4997793;28;20045;-87
2023/08/08 00:16:04;;;;;;;5.13;3.35;;;14.20;19.80;;;;;;4997628;28;20061;-83
2023/08/08 00:18:30;;;;;;;5.20;2.53;;;;;;;;;;4997958;28;20506;-84
2023/08/08 00:20:56;;;;;;;5.20;2.85;;;;;;;;;;4997694;28;20095;-86
2023/08/08 00:23:22;;;;;;;7.25;2.65;;;;;;;;;;5013870;28;20508;-86
2023/08/08 00:25:50;;;;;;;3.90;2.58;;;;;;;;;;4999764;28;20498;-86
2023/08/08 00:28:16;;;;;;;6.07;2.80;;;;;;;;;;5001635;28;20037;-85
2023/08/08 00:30:43;;;;;;;7.20;3.03;;;;;;;;;;5001344;28;20053;-83
2023/08/08 00:33:09;;;;;;;7.90;2.78;;;;;;;;;;5001293;28;20120;-86
2023/08/08 00:35:35;;;;;;;5.60;2.95;;;;;;;;;;5017184;28;20050;-82
2023/08/08 00:38:01;;;;;;;14.23;3.30;;;;;;;;;;5000923;28;20107;-86
2023/08/08 00:40:27;;;;;;;3.33;2.90;;;;;;;;;;4985138;28;20053;-84
2023/08/08 00:42:53;;;;;;;3.97;2.63;;;;;;;;;;5017073;28;20045;-85
2023/08/08 00:45:19;;;;;;;5.70;2.83;;;;;;;;;;5017284;28;20042;-85
2023/08/08 00:47:45;;;;;;;4.88;2.65;;;;;;;;;;5017250;28;20135;-84
2023/08/08 00:50:11;;;;;;;6.65;2.83;;;;;;;;;;5001076;28;20512;-84
2023/08/08 00:52:39;;;;;;;9.23;2.88;;;;;;;;;;5000844;28;20056;-87
2023/08/08 00:55:05;;;;;;;8.25;3.45;;;13.60;23.00;;;;;;5000791;28;20050;-85
2023/08/08 00:57:32;;;;;;;10.38;2.85;;;;;;;;;;5000525;28;20046;-84
2023/08/08 00:59:58;;;;;;;6.38;2.65;;;;;;;;;;4984725;28;20045;-85
2023/08/08 01:02:24;;;;;;;4.93;3.00;;;;;;;;;;5017047;28;20125;-84
2023/08/08 01:04:50;;;;;;;4.85;3.30;;;;;;;;;;5016833;28;20085;-83
2023/08/08 01:07:25;;;;;;;3.72;2.45;;;;;;;;;;5000593;28;20383;-84
2023/08/08 01:10:10;;;;;;;3.70;2.60;;;13.80;29.50;;;;;;5000397;28;20056;-85
2023/08/08 01:12:41;;;;;;;4.57;3.00;;;;;;;;;;5000557;28;20136;-84
2023/08/08 01:15:08;;;;;;;4.28;3.30;;;;;;;;;;5000219;28;20053;-80
2023/08/08 01:17:35;;;;;;;4.97;2.92;;;;;;;;;;5000790;28;20056;-84
2023/08/08 01:20:03;;;;;;;4.45;2.80;;;;;;;;;;5000473;28;20042;-84
2023/08/08 01:22:36;;;;;;;5.38;2.70;;;13.80;25.70;;;;;;5016631;28;20124;-83
2023/08/08 01:25:02;;;;;;;5.43;2.67;;;;;;;;;;5000417;28;20061;-85
2023/08/08 01:27:28;;;;;;;11.85;2.90;;;;;;;;;;5034260;28;20456;-84
2023/08/08 01:29:54;;;;;;;4.28;2.63;;;;;;;;;;5016608;28;20084;-83
2023/08/08 01:32:20;;;;;;;5.70;2.70;;;;;;;;;;4999936;28;20100;-83
2023/08/08 01:34:46;;;;;;;3.22;2.55;;;;;;;;;;5034245;28;20132;-82
2023/08/08 01:37:23;;;;;;;6.07;3.10;;;13.50;28.40;;;;;;5016026;28;20048;-84
2023/08/08 01:39:51;;;;;;;7.00;2.65;;;13.70;27.30;;;;;;5034373;28;20041;-84
2023/08/08 01:42:19;;;;;;;8.40;2.35;;;13.70;27.80;;;;;;5000465;28;20037;-83
2023/08/08 01:44:46;;;;;;;5.68;2.75;;;;;;;;;;5016334;28;20120;-84
2023/08/08 01:47:12;;;;;;;7.10;2.53;;;;;;;;;;5000253;28;20049;-84
2023/08/08 01:49:38;;;;;;;7.60;2.55;;;;;;;;;;4984045;28;20114;-84
2023/08/08 01:52:05;;;;;;;6.78;3.05;;;13.60;43.40;;;;;;5000081;28;20124;-81
2023/08/08 01:54:31;;;;;;;8.43;3.38;;;;;;;;;;4967410;28;20103;-82
2023/08/08 01:56:57;;;;;;;6.57;2.70;;;;;;;;;;4999468;28;20042;-83
2023/08/08 01:59:23;;;;;;;4.20;2.83;;;;;;;;;;5015898;28;20571;-83
2023/08/08 02:01:49;;;;;;;7.65;2.95;;;;;;;;;;5016080;28;20042;-82
2023/08/08 02:04:15;;;;;;;5.25;2.83;;;;;;;;;;5015748;28;20041;-79
2023/08/08 02:06:41;;;;;;;6.20;2.75;;;;;;;;;;4983828;28;20045;-79
2023/08/08 02:09:08;;;;;;;5.95;3.25;;;;;;;;;;5015881;28;20051;-84
2023/08/08 02:11:34;;;;;;;6.47;2.58;;;;;;;;;;5015699;28;20055;-84
2023/08/08 02:14:00;;;;;;;9.57;3.38;;;;;;;;;;5015611;28;20137;-85
2023/08/08 02:16:26;;;;;;;6.07;3.25;;;;;;;;;;4999493;28;20077;-86
2023/08/08 02:18:52;;;;;;;12.45;3.13;;;;;;;;;;4999190;28;20049;-85
2023/08/08 02:21:18;;;;;;;7.50;3.35;;;;;;;;;;4998963;28;20041;-83
2023/08/08 02:23:44;;;;;;;4.82;3.00;;;;;;;;;;5015373;28;20080;-81
2023/08/08 02:26:10;;;;;;;6.15;3.42;;;;;;;;;;4998964;28;20092;-84
2023/08/08 02:28:36;;;;;;;5.20;3.08;;;;;;;;;;4998915;28;20059;-81
2023/08/08 02:31:02;;;;;;;4.68;2.47;;;;;;;;;;4998983;28;20048;-83
2023/08/08 02:33:28;;;;;;;6.28;2.83;;;;;;;;;;5014763;28;20092;-84
2023/08/08 02:35:54;;;;;;;4.10;3.30;;;;;;;;;;4982818;28;20041;-80
2023/08/08 02:38:20;;;;;;;6.90;2.88;;;;;;;;;;4998667;28;20038;-79
2023/08/08 02:40:47;;;;;;;10.60;3.00;;;;;;;;;;5015171;28;20502;-86
2023/08/08 02:43:13;;;;;;;6.68;2.70;;;;;;;;;;4982384;28;20502;-85
2023/08/08 02:45:39;;;;;;;5.57;2.90;;;;;;;;;;4982505;28;20075;-83
2023/08/08 02:48:05;;;;;;;4.65;2.50;;;;;;;;;;4982069;28;20380;-84
2023/08/08 02:50:31;;;;;;;3.75;2.42;;;;;;;;;;4998908;28;20045;-81
2023/08/08 02:52:57;;;;;;;5.43;2.35;;;;;;;;;;4998450;28;20090;-85
2023/08/08 02:55:23;;;;;;;4.50;2.75;;;13.90;43.10;;;;;;5014732;28;20411;-84
2023/08/08 02:57:49;;;;;;;5.70;2.38;;;13.30;41.70;;;;;;4998395;28;20045;-84
2023/08/08 03:00:15;;;;;;;6.45;2.10;;;;;;;;;;5015150;28;20053;-80
2023/08/08 03:02:41;;;;;;;3.17;2.30;;;;;;;;;;4998204;28;20490;-82
2023/08/08 03:05:07;;;;;;;2.50;1.92;;;;;;;;;;5014984;28;20456;-84
2023/08/08 03:07:33;;;;;;;3.65;2.72;;;;;;;;;;5014629;28;20055;-84
2023/08/08 03:09:59;;;;;;;7.25;2.13;;;;;;;;;;5014531;28;20061;-84
2023/08/08 03:12:25;;;;;;;5.60;2.08;;;;;;;;;;4998368;28;20042;-84
2023/08/08 03:14:51;;;;;;;3.22;1.80;;;;;;;;;;4998225;28;20042;-84
2023/08/08 03:17:17;;;;;;;6.22;1.90;;;;;;;;;;5014766;28;20195;-83
2023/08/08 03:19:44;;;;;;;2.10;1.73;;;;;;;;;;4998280;28;20045;-85
2023/08/08 03:22:10;;;;;;;3.90;1.67;;;;;;;;;;5014359;28;20033;-81
2023/08/08 03:24:36;;;;;;;4.72;2.03;;;;;;;;;;4981883;28;20057;-83
2023/08/08 03:27:02;;;;;;;1.83;1.35;;;;;;;;;;4982027;28;20058;-83
2023/08/08 03:29:28;;;;;;;4.22;1.75;;;;;;;;;;4981967;28;20045;-85
2023/08/08 03:31:54;;;;;;;1.55;1.45;;;13.80;18.50;;;;;;5032287;28;20042;-84
2023/08/08 03:34:20;;;;;;;1.73;1.40;;;;;;;;;;5014297;28;20052;-79
2023/08/08 03:36:46;;;;;;;5.80;1.83;;;;;;;;;;5014219;28;20090;-83
2023/08/08 03:39:12;;;;;;;3.05;1.58;;;;;;;;;;4997856;28;20081;-78
2023/08/08 03:41:37;;;;;;;2.13;1.48;;;13.90;14.90;;;;;;5014288;28;20078;-79
2023/08/08 03:44:04;;;;;;;6.82;1.48;;;;;;;;;;4997996;28;20041;-81
2023/08/08 03:46:30;;;;;;;3.38;1.95;;;;;;;;;;4997947;28;20042;-80
2023/08/08 03:48:56;;;;;;;2.67;1.52;;;;;;;;;;4997907;28;20050;-84
2023/08/08 03:51:22;;;;;;;1.75;1.40;;;;;;;;;;4997723;28;20043;-81
2023/08/08 03:53:48;;;;;;;3.78;1.70;;;;;;;;;;5014094;28;20129;-80
2023/08/08 03:56:14;;;;;;;1.77;1.52;;;;;;;;;;5014106;28;20077;-79
2023/08/08 03:58:40;;;;;;;2.45;2.20;;;;;;;;;;5014734;28;20418;-81
2023/08/08 04:01:07;;;;;;;3.33;2.08;;;;;;;;;;5017798;28;20061;-79
2023/08/08 04:03:33;;;;;;;4.93;1.77;;;13.50;18.10;;;;;;5001463;28;20042;-82
2023/08/08 04:05:59;;;;;;;12.13;1.98;;;;;;;;;;4969362;28;20490;-82
2023/08/08 04:08:25;;;;;;;7.15;2.92;;;;;;;;;;5017791;28;20705;-84
2023/08/08 04:10:51;;;;;;;2.72;1.70;;;;;;;;;;5001755;28;20033;-80
2023/08/08 04:13:17;;;;;;;1.83;1.48;;;;;;;;;;5017866;28;20041;-82
2023/08/08 04:15:43;;;;;;;3.80;1.67;;;;;;;;;;5001363;28;20056;-85
2023/08/08 04:18:09;;;;;;;3.08;1.88;;;;;;;;;;5001214;28;20053;-84
2023/08/08 04:20:35;;;;;;;4.30;1.90;;;;;;;;;;4985603;28;20115;-83
2023/08/08 04:23:01;;;;;;;4.60;1.85;;;;;;;;;;5017554;28;20126;-83
2023/08/08 04:25:27;;;;;;;4.35;1.63;;;;;;;;;;5001036;28;20061;-80
2023/08/08 04:27:53;;;;;;;2.90;1.77;;;;;;;;;;5017546;28;20084;-78
2023/08/08 04:30:20;;;;;;;7.47;2.15;;;;;;;;;;4997654;28;20038;-79
2023/08/08 04:32:46;;;;;;;6.45;2.03;;;;;;;;;;4981615;28;20046;-78
2023/08/08 04:35:12;;;;;;;2.90;1.85;;;;;;;;;;4981958;28;20046;-80
2023/08/08 04:37:38;;;;;;;7.38;1.67;;;;;;;;;;4982265;28;20046;-86
2023/08/08 04:40:05;;;;;;;5.10;2.10;;;;;;;;;;4982184;28;20057;-85
2023/08/08 04:42:31;;;;;;;4.93;1.48;;;;;;;;;;4981829;28;20096;-78
2023/08/08 04:44:57;;;;;;;3.05;1.50;;;;;;;;;;4981735;28;20137;-86
2023/08/08 04:47:23;;;;;;;6.22;2.00;;;;;;;;;;4981365;28;20034;-83
2023/08/08 04:49:49;;;;;;;5.75;1.98;;;;;;;;;;4997719;28;20421;-84
2023/08/08 04:52:15;;;;;;;2.53;1.25;;;;;;;;;;4997512;28;20229;-82
2023/08/08 04:54:41;;;;;;;5.60;1.40;;;;;;;;;;4997577;28;20050;-81
2023/08/08 04:57:07;;;;;;;7.05;1.60;;;;;;;;;;4997756;28;20049;-82
2023/08/08 04:59:33;;;;;;;6.47;1.67;;;;;;;;;;4997706;28;20082;-83
2023/08/08 05:01:59;;;;;;;4.28;1.70;;;;;;;;;;4997307;28;20537;-84
2023/08/08 05:04:25;;;;;;;7.00;1.75;;;;;;;;;;4980903;28;20046;-84
2023/08/08 05:06:51;;;;;;;3.40;1.77;;;;;;;;;;4981124;28;20046;-85
2023/08/08 05:09:17;;;;;;;4.45;2.28;;;;;;;;;;4981235;28;20057;-86
2023/08/08 05:11:44;;;;;;;3.40;1.60;;;;;;;;;;4980201;28;20041;-84
2023/08/08 05:14:10;;;;;;;5.22;1.83;;;;;;;;;;4964650;28;20498;-86
2023/08/08 05:16:35;;;;;;;10.65;1.73;;;14.00;27.90;;;;;;4981079;28;20048;-85
2023/08/08 05:19:01;;;;;;;2.95;1.70;;;;;;;;;;4996989;28;20057;-84
2023/08/08 05:21:27;;;;;;;5.38;1.70;;;;;;;;;;4980757;28;20081;-84
2023/08/08 05:23:54;;;;;;;8.45;2.15;;;;;;;;;;4995836;28;20041;-84
2023/08/08 05:26:20;;;;;;;3.67;1.70;;;;;;;;;;4993911;28;20123;-85
2023/08/08 05:28:46;;;;;;;4.45;1.45;;;;;;;;;;4993483;28;20435;-84
2023/08/08 05:31:11;;;;;;;4.55;1.45;;;14.40;24.20;;;;;;4993474;28;20039;-84
2023/08/08 05:33:38;;;;;;;6.60;1.75;;;;;;;;;;4960838;28;20528;-84
2023/08/08 05:36:04;;;;;;;9.13;2.67;;;;;;;;;;4993426;28;20042;-83
2023/08/08 05:38:30;;;;;;;5.45;1.52;;;;;;;;;;4960951;28;20085;-84
2023/08/08 05:40:56;;;;;;;4.85;1.90;;;;;;;;;;4993277;28;20058;-84
2023/08/08 05:43:21;;;;;;;8.38;1.90;;;14.30;20.00;;;;;;4961300;28;20042;-85
2023/08/08 05:45:48;;;;;;;2.72;1.58;;;;;;;;;;4977371;28;20112;-82
2023/08/08 05:48:14;;;;;;;6.35;1.65;;;;;;;;;;4977024;28;20105;-84
2023/08/08 05:50:40;;;;;;;5.50;1.90;;;;;;;;;;4993403;28;20133;-84
2023/08/08 05:53:06;;;;;;;8.05;1.83;;;;;;;;;;4992903;28;20571;-84
2023/08/08 05:55:32;;;;;;;5.50;1.80;;;;;;;;;;4992793;28;20046;-80
2023/08/08 05:57:58;;;;;;;2.92;1.48;;;;;;;;;;4993211;28;20035;-81
2023/08/08 06:00:25;;;;;;;2.55;1.50;;;;;;;;;;4976756;28;20053;-82
2023/08/08 06:02:51;;;;;;;5.07;1.65;;;;;;;;;;4992557;28;20073;-84
2023/08/08 06:05:17;;;;;;;4.07;1.85;;;14.60;16.10;;;;;;4945030;28;20039;-84
2023/08/08 06:07:43;;;;;;;4.90;1.40;;;14.70;15.00;;;;;;4992746;28;20820;-84
2023/08/08 06:10:09;;;;;;;3.53;1.45;;;;;;;;;;4992596;28;20046;-84
2023/08/08 06:12:35;;;;;;;3.92;1.48;;;;;;;;;;4976673;28;20045;-84
2023/08/08 06:15:01;;;;;;;5.80;1.50;;;14.90;8.60;;;;;;4976507;28;20076;-85
2023/08/08 06:17:27;;;;;;;4.45;2.85;;;;;;;;;;4960151;28;20125;-85
2023/08/08 06:19:55;;;;;;;2.78;1.23;;;;;;;;;;4976348;28;20500;-85
2023/08/08 06:22:21;;;;;;;3.95;1.63;;;;;;;;;;4992570;28;20054;-83
2023/08/08 06:24:47;;;;;;;4.72;1.80;;;;;;;;;;4976231;28;20061;-84
2023/08/08 06:27:13;;;;;;;7.03;1.75;;;;;;;;;;4960113;28;20043;-83
2023/08/08 06:29:39;;;;;;;6.53;1.75;;;;;;;;;;4975996;28;20049;-79
2023/08/08 06:32:06;;;;;;;4.65;1.30;;;;;;;;;;4976216;28;20046;-81
2023/08/08 06:34:32;;;;;;;5.50;1.52;;;;;;;;;;4992354;28;20050;-82
2023/08/08 06:36:58;;;;;;;1.25;1.15;;;;;;;;;;4992231;28;20118;-78
2023/08/08 06:39:24;;;;;;;7.47;1.50;;;;;;;;;;4992030;28;20595;-82
2023/08/08 06:41:50;;;;;;;6.72;1.80;;;;;;;;;;4975893;28;20046;-80
2023/08/08 06:44:16;;;;;;;4.28;2.17;;;;;;;;;;4991945;28;20039;-79
2023/08/08 06:46:42;;;;;;;6.53;1.30;;;;;;;;;;4975862;28;20046;-81
2023/08/08 06:49:09;;;;;;;7.05;1.83;;;;;;;;;;4992206;28;20050;-85
2023/08/08 06:51:35;;;;;;;6.32;1.60;;;15.90;1.00;;;;;;4976309;28;20046;-80
2023/08/08 06:54:01;;;;;;;4.65;1.30;;;15.50;1.00;;;;;;4991850;28;20045;-85
2023/08/08 06:56:26;;;;;;;5.63;1.40;;;15.80;1.00;;;;;;4992144;28;20050;-80
2023/08/08 06:58:53;;;;;;;6.38;1.55;;;;;;;;;;4975506;28;20046;-78
2023/08/08 07:01:19;;;;;;;5.10;1.60;;;15.90;1.00;;;;;;4991847;28;20128;-81
2023/08/08 07:03:46;;;;;;;2.90;1.40;;;;;;;;;;4975108;28;20046;-82
2023/08/08 07:06:12;;;;;;;5.75;1.60;;;;;;;;;;4975476;28;20100;-81
2023/08/08 07:08:39;;;;;;;4.05;1.98;;;;;;;;;;4991673;28;20042;-81
2023/08/08 07:11:08;;;;;;;7.95;1.42;;;16.10;1.00;;;;;;4991809;28;20050;-83
2023/08/08 07:13:34;;;;;;;3.47;1.35;;;16.30;1.00;;;;;;4959431;28;20053;-85
2023/08/08 07:16:00;;;;;;;6.13;1.83;;;;;;;;;;4975419;28;20046;-82
2023/08/08 07:18:26;;;;;;;4.68;1.75;;;;;;;;;;4975445;28;20488;-82
2023/08/08 07:20:52;;;;;;;8.45;1.90;;;16.10;1.00;;;;;;4975192;28;20042;-79
2023/08/08 07:23:19;;;;;;;3.25;1.30;;;16.30;1.00;;;;;;4975127;28;20130;-81
2023/08/08 07:25:46;;;;;;;5.28;1.10;;;16.50;1.00;;;;;;4994149;28;20495;-82
2023/08/08 07:28:14;;;;;;;4.60;0.85;;;16.40;1.00;;;;;;4962518;28;20060;-84
2023/08/08 07:30:40;;;;;;;6.13;1.45;;;16.50;1.00;;;;;;4994500;28;20095;-80
2023/08/08 07:33:08;;;;;;;6.22;1.77;;;16.50;1.00;;;;;;4993996;28;20081;-79
2023/08/08 07:35:34;;;;;;;1.98;1.15;;;16.80;1.00;;;;;;4962330;28;20054;-82
2023/08/08 07:38:00;;;;;;;5.47;1.10;;;16.40;1.00;;;;;;4994311;28;20121;-81
2023/08/08 07:40:26;;;;;;;4.70;1.38;;;;;;;;;;4978718;28;20050;-82
2023/08/08 07:42:53;;;;;;;8.05;1.40;;;16.60;1.00;;;;;;4962611;28;20073;-82
2023/08/08 07:45:18;;;;;;;6.63;1.45;;;16.50;1.00;;;;;;4978231;28;20050;-83
2023/08/08 07:47:44;;;;;;;6.80;1.25;;;16.50;1.00;;;;;;4994625;28;20103;-83
2023/08/08 07:50:11;;;;;;;2.85;1.10;;;;;;;;;;4994355;28;20132;-86
2023/08/08 07:52:37;;;;;;;4.20;1.27;;;;;;;;;;4978702;28;20046;-83
2023/08/08 07:55:04;;;;;;;2.00;1.10;;;16.40;1.00;;;;;;4978179;28;20392;-81
2023/08/08 07:57:31;;;;;;;4.50;1.33;;;;;;;;;;4978203;28;20046;-84
2023/08/08 07:59:57;;;;;;;2.38;1.23;;;;;;;;;;4994610;28;20053;-84
2023/08/08 08:02:23;;;;;;;4.80;1.45;;;16.70;1.00;;;;;;4977869;28;20419;-83
2023/08/08 08:04:49;;;;;;;4.60;1.33;;;;;;;;;;4994515;28;20042;-82
2023/08/08 08:07:15;;;;;;;1.88;1.20;;;16.80;1.00;;;;;;5011945;28;20388;-83
2023/08/08 08:09:42;;;;;;;6.63;1.77;;;;;;;;;;4994249;28;20073;-82
2023/08/08 08:12:08;;;;;;;6.85;1.35;;;16.60;1.00;;;;;;4994545;28;20042;-82
2023/08/08 08:14:34;;;;;;;10.65;1.30;;;16.60;1.00;;;;;;4978126;28;20116;-83
2023/08/08 08:17:00;;;;;;;3.42;1.70;;;;;;;;;;4978285;28;20491;-83
2023/08/08 08:19:26;;;;;;;4.93;1.30;;;;;;;;;;4962029;28;20034;-81
2023/08/08 08:21:52;;;;;;;5.47;1.50;;;;;;;;;;4962359;28;20057;-82
2023/08/08 08:24:18;;;;;;;5.95;1.48;;;16.70;1.00;;;;;;4975831;28;20495;-79
2023/08/08 08:26:44;;;;;;;8.05;2.15;;;16.60;1.00;;;;;;4974653;28;20054;-83
2023/08/08 08:29:09;;;;;;;3.17;1.55;;;16.50;1.00;;;;;;4991003;28;20111;-84
2023/08/08 08:31:37;;;;;;;3.38;1.27;;;;;;;;;;4975210;28;20778;-86
2023/08/08 08:34:04;;;;;;;7.50;2.05;;;;;;;;;;4974468;28;20038;-84
2023/08/08 08:36:30;;;;;;;4.15;1.63;;;;;;;;;;4958810;28;20537;-79
2023/08/08 08:38:56;;;;;;;2.80;1.45;;;;;;;;;;4958405;28;20439;-80
2023/08/08 08:41:27;;;;;;;4.82;1.63;;;16.90;1.00;;;;;;4991197;28;20042;-81
2023/08/08 08:43:54;;;;;;;4.18;2.10;;;17.00;1.00;;;;;;4974728;28;20097;-85
2023/08/08 08:46:21;;;;;;;7.55;1.63;;;16.90;1.00;;;;;;4975857;28;20154;-82
2023/08/08 08:48:49;;;;;;;7.50;1.77;;;16.90;1.00;;;;;;4977900;28;20042;-84
2023/08/08 08:51:16;;;;;;;2.53;1.20;;;;;;;;;;4961825;28;20053;-81
2023/08/08 08:53:43;;;;;;;4.97;2.53;;;;;;;;;;4961989;28;20119;-81
2023/08/08 08:56:09;;;;;;;4.50;1.42;;;;;;;;;;4995298;28;20523;-82
2023/08/08 08:58:35;;;;;;;2.42;1.60;;;;;;;;;;4994190;28;20380;-80
2023/08/08 09:01:01;;;;;;;2.25;1.13;;;;;;;;;;4977925;28;20463;-86
2023/08/08 09:03:27;;;;;;;2.55;1.48;;;;;;;;;;4994074;28;20439;-81
2023/08/08 09:05:54;;;;;;;3.25;1.50;;;16.90;1.00;;;;;;4977711;28;20054;-81
2023/08/08 09:08:20;;;;;;;4.10;1.52;;;;;;;;;;4977797;28;20495;-85
2023/08/08 09:10:46;;;;;;;3.55;1.17;;;;;;;;;;4995205;28;20034;-83
2023/08/08 09:13:13;;;;;;;7.90;1.50;;;;;;;;;;4981467;28;20130;-82
2023/08/08 09:15:39;;;;;;;3.30;1.80;;;;;;;;;;4983420;28;20077;-81
2023/08/08 09:18:07;;;;;;;3.00;1.55;;;17.10;1.00;;;;;;4964400;28;20053;-81
2023/08/08 09:20:33;;;;;;;8.65;1.80;;;17.00;1.00;;;;;;4995832;28;20081;-83
2023/08/08 09:22:59;;;;;;;6.28;1.20;;;;;;;;;;4996760;28;20042;-83
2023/08/08 09:25:26;;;;;;;3.15;1.27;;;17.30;1.00;;;;;;4994134;28;20057;-83
2023/08/08 09:27:56;;;;;;;4.78;1.40;;;;;;;;;;4993839;28;20069;-82
2023/08/08 09:30:22;;;;;;;2.97;1.20;;;;;;;;;;4977637;28;20298;-83
2023/08/08 09:32:48;;;;;;;1.15;1.05;;;;;;;;;;4977112;28;20049;-84
2023/08/08 09:35:15;;;;;;;5.65;1.35;;;17.20;1.00;;;;;;4993307;28;20057;-83
2023/08/08 09:37:40;;;;;;;3.30;0.85;;;17.40;1.00;;;;;;4993068;28;20042;-80
2023/08/08 09:40:07;;;;;;;4.20;1.10;;;17.50;1.00;;;;;;4993339;28;20047;-80
2023/08/08 09:42:35;;;;;;;1.60;1.30;;;17.60;1.00;;;;;;4993298;28;20043;-80
2023/08/08 09:45:01;;;;;;;3.28;1.20;;;;;;;;;;4977054;28;20503;-83
2023/08/08 09:47:31;;;;;;;3.50;1.23;;;17.80;1.00;;;;;;4961441;28;20092;-82
2023/08/08 09:50:01;;;;;;;4.03;1.60;;;17.50;1.00;;;;;;4976999;28;20053;-85
2023/08/08 09:52:28;;;;;;;39.30;3.15;;;;;;;;;;4976796;28;20038;-84
2023/08/08 09:54:55;;;;;;;2.40;1.23;;;17.00;1.00;;;;;;4960457;28;20046;-84
2023/08/08 09:57:22;;;;;;;3.75;1.42;;;;;;;;;;4976607;28;20078;-82
2023/08/08 09:59:48;;;;;;;4.03;0.95;;;;;;;;;;4976699;28;20042;-80
2023/08/08 10:02:15;;;;;;;1.92;0.75;;;16.30;1.00;;;;;;4960333;28;20042;-82
2023/08/08 10:04:42;;;;;;;4.18;1.08;;;16.10;1.00;;;;;;4976917;28;20503;-81
2023/08/08 10:07:08;;;;;;;2.50;1.17;;;;;;;;;;4960975;28;20045;-82
2023/08/08 10:09:35;;;;;;;1.38;1.00;;;;;;;;;;4992769;28;20066;-81
2023/08/08 10:12:01;;;;;;;7.53;1.42;;;;;;;;;;4960513;28;20042;-83
2023/08/08 10:14:32;;;;;;;3.70;0.80;;;16.40;7.60;;;;;;4976284;28;20518;-82
2023/08/08 10:16:58;;;;;;;2.22;1.30;;;;;;;;;;4992387;28;20046;-83
2023/08/08 10:19:25;;;;;;;9.90;2.45;;;;;;;;;;4976303;28;20042;-83
2023/08/08 10:21:58;;;;;;;2.38;1.13;;;16.20;1.00;;;;;;4992750;28;20369;-82
2023/08/08 10:24:23;;;;;;;5.80;1.13;;;16.20;1.00;;;;;;4976327;28;20530;-82
2023/08/08 10:26:54;;;;;;;4.22;1.40;;;16.10;1.00;;;;;;4944642;28;20054;-84
2023/08/08 10:29:20;;;;;;;3.38;1.63;;;;;;;;;;4976204;28;20129;-88
2023/08/08 10:32:03;;;;;;;3.28;1.25;;;16.30;1.00;;;;;;4975957;28;20447;-83
2023/08/08 10:34:47;;;;;;;2.47;1.20;;;16.10;1.00;;;;;;4961036;28;20137;-86
2023/08/08 10:37:20;;;;;;;5.28;1.45;;;16.20;1.00;;;;;;4992290;28;20047;-86
2023/08/08 10:39:57;;;;;;;5.73;1.60;;;16.30;1.00;;;;;;4960000;28;20042;-87
2023/08/08 10:42:25;;;;;;;2.30;0.85;;;;;;;;;;4976091;28;20038;-83
2023/08/08 10:44:54;;;;;;;5.65;2.13;;;16.60;1.00;;;;;;4992061;28;20495;-87
2023/08/08 10:47:24;;;;;;;4.35;1.20;;;;;;;;;;4975422;28;20499;-87
2023/08/08 10:50:05;;;;;;;3.65;1.23;;;16.70;1.00;;;;;;4975946;28;20038;-86
2023/08/08 10:52:31;;;;;;;4.25;1.60;;;;;;;;;;4992007;28;20042;-88
2023/08/08 10:54:57;;;;;;;3.08;1.17;;;;;;;;;;4975488;28;20523;-88
2023/08/08 10:57:27;;;;;;;6.03;1.20;;;;;;;;;;4976046;28;20047;-88
2023/08/08 10:59:54;;;;;;;2.83;1.10;;;;;;;;;;4991845;28;20130;-87
2023/08/08 11:02:20;;;;;;;5.28;1.55;;;17.00;1.00;;;;;;4959416;28;20595;-83
2023/08/08 11:04:47;;;;;;;6.28;1.10;;;;;;;;;;4975527;28;20129;-87
2023/08/08 11:07:15;;;;;;;4.97;1.35;;;17.40;1.00;;;;;;4975508;28;20403;-81
2023/08/08 11:09:41;;;;;;;3.83;1.40;;;;;;;;;;4991075;28;20133;-84
2023/08/08 11:12:14;;;;;;;3.00;1.10;;;17.50;1.00;;;;;;4991595;28;20049;-81
2023/08/08 11:14:40;;;;;;;5.63;1.67;;;;;;;;;;4991378;28;20051;-81
2023/08/08 11:17:06;;;;;;;7.68;1.30;;;;;;;;;;4975333;28;20384;-80
2023/08/08 11:19:38;;;;;;;3.33;1.20;;;17.70;1.00;;;;;;4975215;28;20145;-80
2023/08/08 11:22:10;;;;;;;8.10;1.98;;;17.80;1.00;;;;;;4959411;28;20478;-81
2023/08/08 11:24:36;;;;;;;1.08;0.98;;;;;;;;;;4994264;28;20133;-80
2023/08/08 11:27:02;;;;;;;5.38;1.40;;;;;;;;;;4978820;28;20445;-80
2023/08/08 11:29:30;;;;;;;6.68;1.42;;;17.90;1.00;;;;;;4978306;28;20045;-84
2023/08/08 11:31:59;;;;;;;1.63;0.93;;;17.70;1.00;;;;;;4978607;28;20045;-81
2023/08/08 11:34:25;;;;;;;2.72;1.13;;;18.10;1.00;;;;;;4994742;28;20107;-80
2023/08/08 11:36:52;;;;;;;2.28;1.40;;;18.00;1.00;;;;;;4962497;28;20049;-85
2023/08/08 11:39:18;;;;;;;3.25;1.10;;;;;;;;;;4946693;28;20103;-86
2023/08/08 11:41:45;;;;;;;6.85;1.20;;;17.80;1.00;;;;;;4978564;28;20132;-86
2023/08/08 11:44:11;;;;;;;7.78;1.75;;;;;;;;;;4994621;28;20058;-82
2023/08/08 11:46:47;;;;;;;2.45;1.30;;;;;;;;;;4978380;28;20498;-85
2023/08/08 11:49:16;;;;;;;1.92;1.23;;;18.20;1.00;;;;;;4994709;28;20050;-84
2023/08/08 11:51:46;;;;;;;4.20;1.40;;;18.10;1.00;;;;;;4994124;28;20380;-82
2023/08/08 11:54:12;;;;;;;2.15;1.05;;;;;;;;;;4978080;28;20058;-84
2023/08/08 11:56:38;;;;;;;3.58;1.20;;;;;;;;;;4978565;28;20491;-85
2023/08/08 11:59:05;;;;;;;3.30;1.10;;;17.70;1.00;;;;;;4962117;28;20284;-85
2023/08/08 12:01:32;;;;;;;6.97;1.30;;;17.50;1.00;;;;;;4978096;28;20549;-83
2023/08/08 12:03:58;;;;;;;4.03;1.40;;;;;;;;;;4978193;28;20073;-81
2023/08/08 12:06:29;;;;;;;1.98;1.25;;;17.30;1.00;;;;;;4962610;28;20088;-81
2023/08/08 12:08:55;;;;;;;4.95;1.17;;;17.30;1.00;;;;;;4978110;28;20048;-83
2023/08/08 12:11:21;;;;;;;7.22;1.15;;;17.40;1.00;;;;;;4994252;28;20050;-87
2023/08/08 12:13:47;;;;;;;6.38;1.73;;;;;;;;;;4977898;28;20041;-83
2023/08/08 12:16:14;;;;;;;7.53;1.88;;;17.60;1.00;;;;;;4978281;28;20045;-82
2023/08/08 12:18:41;;;;;;;4.20;1.48;;;17.70;1.00;;;;;;4962071;28;20507;-82
2023/08/08 12:21:08;;;;;;;3.22;1.10;;;17.60;1.00;;;;;;4981073;28;20050;-85
2023/08/08 12:23:34;;;;;;;5.82;1.63;;;18.00;1.00;;;;;;4949912;28;20038;-83
2023/08/08 12:26:02;;;;;;;4.25;1.35;;;17.60;1.00;;;;;;4997853;28;20098;-80
2023/08/08 12:28:29;;;;;;;6.85;1.33;;;17.90;1.00;;;;;;4982232;28;20379;-83
2023/08/08 12:30:55;;;;;;;9.20;1.55;;;;;;;;;;4981887;28;20546;-83
2023/08/08 12:33:21;;;;;;;1.73;1.20;;;;;;;;;;4997490;28;20610;-87
2023/08/08 12:35:48;;;;;;;3.03;1.15;;;17.50;1.00;;;;;;4997757;28;20052;-83
2023/08/08 12:38:14;;;;;;;4.03;1.02;;;;;;;;;;4997749;28;20046;-82
2023/08/08 12:40:40;;;;;;;3.78;1.30;;;17.60;1.00;;;;;;4981270;28;20132;-80
2023/08/08 12:43:06;;;;;;;4.68;0.93;;;;;;;;;;4997480;28;20184;-82
2023/08/08 12:45:32;;;;;;;4.78;1.13;;;;;;;;;;4982057;28;20088;-82
2023/08/08 12:47:58;;;;;;;4.30;1.10;;;;;;;;;;4997562;28;20041;-82
2023/08/08 12:50:25;;;;;;;5.63;1.58;;;;;;;;;;4997415;28;20049;-82
2023/08/08 12:52:51;;;;;;;2.20;1.20;;;;;;;;;;4981126;28;20041;-84
2023/08/08 12:55:18;;;;;;;3.70;1.40;;;;;;;;;;4997321;28;20142;-83
2023/08/08 12:57:44;;;;;;;4.18;2.17;;;17.80;1.00;;;;;;4965109;28;20038;-85
2023/08/08 13:00:10;;;;;;;11.95;1.70;;;17.60;1.00;;;;;;4981160;28;20053;-84
2023/08/08 13:02:38;;;;;;;3.50;1.40;;;17.50;1.00;;;;;;4996994;28;20049;-85
2023/08/08 13:05:06;;;;;;;4.40;1.45;;;17.60;1.00;;;;;;5014726;28;20085;-85
2023/08/08 13:07:33;;;;;;;3.55;1.30;;;;;;;;;;4997040;28;20041;-84
2023/08/08 13:09:59;;;;;;;6.90;1.20;;;;;;;;;;4997175;28;20058;-85
2023/08/08 13:12:25;;;;;;;5.15;1.10;;;;;;;;;;4997136;28;20037;-85
2023/08/08 13:14:51;;;;;;;3.63;1.45;;;;;;;;;;5014596;28;20049;-85
2023/08/08 13:17:17;;;;;;;2.60;1.00;;;;;;;;;;4997327;28;20077;-84
2023/08/08 13:19:44;;;;;;;4.28;1.67;;;;;;;;;;4980667;28;20053;-83
2023/08/08 13:22:10;;;;;;;4.72;0.98;;;;;;;;;;4980923;28;20111;-84
2023/08/08 13:24:36;;;;;;;4.78;2.00;;;;;;;;;;4978304;28;20050;-84
2023/08/08 13:27:02;;;;;;;3.35;1.10;;;;;;;;;;4993763;28;20050;-83
2023/08/08 13:29:28;;;;;;;0.98;0.82;;;;;;;;;;4961655;28;20403;-85
2023/08/08 13:31:54;;;;;;;3.28;1.00;;;;;;;;;;4992527;28;20057;-84
2023/08/08 13:34:20;;;;;;;5.38;1.88;;;;;;;;;;4976997;28;20089;-85
2023/08/08 13:36:46;;;;;;;4.68;1.42;;;18.30;1.00;;;;;;4976705;28;20134;-86
2023/08/08 13:39:11;;;;;;;4.13;1.00;;;18.70;1.00;;;;;;4977325;28;20136;-84
2023/08/08 13:41:37;;;;;;;5.78;1.30;;;18.50;1.00;;;;;;4993518;28;20049;-87
2023/08/08 13:44:03;;;;;;;4.03;1.23;;;18.50;1.00;;;;;;4961120;28;20034;-85
2023/08/08 13:46:29;;;;;;;2.80;1.00;;;;;;;;;;4993145;28;20042;-87
2023/08/08 13:48:55;;;;;;;3.72;1.60;;;;;;;;;;4993413;28;20792;-85
2023/08/08 13:51:22;;;;;;;7.32;1.70;;;;;;;;;;4992996;28;20403;-86
2023/08/08 13:53:51;;;;;;;6.22;1.77;;;;;;;;;;4994540;28;20046;-79
2023/08/08 13:56:18;;;;;;;16.27;2.58;;;;;;;;;;4993387;28;20109;-83
2023/08/08 13:58:44;;;;;;;4.93;1.83;;;;;;;;;;4994639;28;20046;-86
2023/08/08 14:01:10;;;;;;;2.53;0.90;;;;;;;;;;4992974;28;20627;-86
2023/08/08 14:03:36;;;;;;;2.20;0.82;;;;;;;;;;4960897;28;20054;-85